Time;durP1;ratioP1;P1;durP2;ratioP2;P2;SDS_P1;SDS_P2;PMS_P1;PMS_P2;Temp;Humidity;BMP_temperature;BMP_pressure;BME280_temperature;BME280_humidity;BME280_pressure;Samples;Min_cycle;Max_cycle;Signal;HPM_P1;HPM_P2
2022/01/05 00:00:16;;;;;;;28.17;0.85;;;;;;;5.64;100.00;98857.66;4992081;28;20061;-86
2022/01/05 00:03:20;;;;;;;0.10;0.10;;;;;;;5.72;100.00;98855.31;4982905;28;20058;-84
2022/01/05 00:06:23;;;;;;;0.30;0.30;;;;;;;5.79;100.00;98852.97;4990284;28;20049;-86
2022/01/05 00:09:26;;;;;;;1.27;1.17;;;;;;;5.93;100.00;98846.78;5000560;28;20065;-85
2022/01/05 00:12:30;;;;;;;0.88;0.35;;;;;;;5.99;100.00;98861.50;4984360;28;20045;-87
2022/01/05 00:15:33;;;;;;;0.22;0.22;;;;;;;6.06;100.00;98855.63;4979664;28;20053;-87
2022/01/05 00:18:36;;;;;;;0.20;0.20;;;;;;;6.16;100.00;98863.88;4988193;28;20062;-84
2022/01/05 00:21:40;;;;;;;0.10;0.10;;;;;;;6.15;100.00;98863.09;4995910;28;20049;-86
2022/01/05 00:24:44;;;;;;;26.05;0.95;;;;;;;6.13;100.00;98876.63;4994882;28;20053;-83
2022/01/05 00:27:47;;;;;;;0.28;0.28;;;;;;;6.14;100.00;98878.16;4980584;28;20073;-84
2022/01/05 00:30:50;;;;;;;0.10;0.10;;;;;;;6.15;100.00;98851.28;4975489;28;20059;-84
2022/01/05 00:33:55;;;;;;;3.83;0.32;;;;;;;6.09;100.00;98854.69;4980427;28;20057;-86
2022/01/05 00:36:58;;;;;;;0.13;0.13;;;;;;;6.17;100.00;98859.88;4987778;28;20061;-84
2022/01/05 00:40:06;;;;;;;0.38;0.35;;;;;;;6.19;100.00;98857.41;5003804;28;20057;-85
2022/01/05 00:43:10;;;;;;;7.18;1.05;;;;;;;6.13;100.00;98860.81;4990624;28;20057;-85
2022/01/05 00:46:13;;;;;;;2.97;0.98;;;;;;;6.07;100.00;98856.38;4989142;28;20496;-90
2022/01/05 00:49:17;;;;;;;1.48;0.80;;;;;;;6.06;100.00;98861.16;4976067;28;20062;-91
2022/01/05 00:52:21;;;;;;;10.43;1.88;;;;;;;5.99;100.00;98850.47;4992198;28;20126;-94
2022/01/05 00:55:24;;;;;;;0.45;0.45;;;;;;;5.99;100.00;98858.75;4992242;28;20061;-84
2022/01/05 00:58:27;;;;;;;0.55;0.55;;;;;;;6.02;100.00;98866.09;4983007;28;20053;-84
2022/01/05 01:01:31;;;;;;;2.63;1.38;;;;;;;5.99;100.00;98869.81;4993085;28;20058;-84
2022/01/05 01:04:34;;;;;;;8.35;0.85;;;;;;;6.08;100.00;98869.75;4993904;28;20053;-84
2022/01/05 01:07:38;;;;;;;0.10;0.10;;;;;;;6.20;100.00;98870.75;4974204;28;20058;-83
2022/01/05 01:10:41;;;;;;;0.20;0.20;;;;;;;6.29;100.00;98861.63;4973696;28;20058;-84
2022/01/05 01:13:44;;;;;;;0.15;0.15;;;;;;;6.35;100.00;98868.03;4974225;28;20058;-83
2022/01/05 01:16:48;;;;;;;0.15;0.15;;;;;;;6.32;100.00;98877.28;4987861;28;20049;-83
2022/01/05 01:19:51;;;;;;;1.00;0.43;;;;;;;6.25;100.00;98878.41;4987132;28;20054;-83
2022/01/05 01:22:54;;;;;;;9.45;0.77;;;;;;;6.20;100.00;98886.56;4988974;28;20061;-83
2022/01/05 01:25:58;;;;;;;0.43;0.20;;;;;;;6.26;100.00;98895.78;4992827;28;20053;-83
2022/01/05 01:29:01;;;;;;;1.95;0.73;;;;;;;6.33;100.00;98889.88;4993212;28;20630;-83
2022/01/05 01:32:05;;;;;;;2.40;0.35;;;;;;;6.38;100.00;98892.00;4991627;28;20053;-82
2022/01/05 01:35:09;;;;;;;14.70;1.33;;;;;;;6.38;100.00;98908.59;4992322;28;20531;-83
2022/01/05 01:38:13;;;;;;;0.35;0.32;;;;;;;6.42;100.00;98898.88;4979265;28;21478;-82
2022/01/05 01:41:17;;;;;;;0.10;0.10;;;;;;;6.53;100.00;98888.06;4983057;28;20061;-82
2022/01/05 01:44:20;;;;;;;5.80;0.38;;;;;;;6.53;100.00;98898.34;4980218;28;20053;-83
2022/01/05 01:47:23;;;;;;;0.70;0.30;;;;;;;6.56;100.00;98900.94;4989079;28;20050;-83
2022/01/05 01:50:27;;;;;;;2.17;1.10;;;;;;;6.57;100.00;98893.41;4980965;28;20054;-82
2022/01/05 01:53:34;;;;;;;1.40;0.88;;;;;;;6.56;100.00;98892.63;4977190;28;20420;-83
2022/01/05 01:56:38;;;;;;;8.25;1.30;;;;;;;6.61;100.00;98905.03;4983367;28;20417;-83
2022/01/05 01:59:42;;;;;;;0.20;0.20;;;;;;;6.55;100.00;98902.19;4978720;28;20065;-83
2022/01/05 02:02:46;;;;;;;0.75;0.40;;;;;;;6.56;100.00;98900.94;4992523;28;20065;-83
2022/01/05 02:05:49;;;;;;;0.17;0.17;;;;;;;6.56;100.00;98908.47;4980764;28;20062;-83
2022/01/05 02:08:52;;;;;;;0.82;0.52;;;;;;;6.46;100.00;98924.34;4982703;28;20054;-83
2022/01/05 02:11:56;;;;;;;0.52;0.52;;;;;;;6.57;100.00;98926.59;4981963;28;20058;-84
2022/01/05 02:15:00;;;;;;;0.40;0.40;;;;;;;6.61;100.00;98927.19;4977653;28;20515;-83
2022/01/05 02:21:14;;;;;;;0.30;0.30;;;;;;;6.64;100.00;98937.31;4980130;28;20057;-84
2022/01/05 02:24:17;;;;;;;0.10;0.10;;;;;;;6.56;100.00;98927.84;4986127;28;20084;-83
2022/01/05 02:27:20;;;;;;;0.90;0.20;;;;;;;6.54;100.00;98933.81;4977427;28;20045;-83
2022/01/05 02:30:28;;;;;;;2.13;0.47;;;;;;;6.57;100.00;98921.06;4978041;28;20053;-83
2022/01/05 02:33:32;;;;;;;1.05;0.25;;;;;;;6.66;100.00;98918.25;4978622;28;20050;-84
2022/01/05 02:36:36;;;;;;;0.75;0.20;;;;;;;6.73;100.00;98940.03;4981812;28;20046;-83
2022/01/05 02:39:39;;;;;;;0.30;0.30;;;;;;;6.78;100.00;98937.34;4979286;28;20528;-84
2022/01/05 02:42:44;;;;;;;4.95;0.90;;;;;;;6.72;100.00;98919.09;4978538;28;20054;-83
2022/01/05 02:45:48;;;;;;;0.57;0.40;;;;;;;6.63;100.00;98924.69;4983206;28;20404;-84
2022/01/05 02:48:53;;;;;;;0.10;0.10;;;;;;;6.59;100.00;98926.88;4978689;28;20057;-83
2022/01/05 02:51:57;;;;;;;0.47;0.47;;;;;;;6.43;100.00;98928.06;4974739;28;20054;-84
2022/01/05 02:55:02;;;;;;;0.30;0.30;;;;;;;6.39;100.00;98926.72;4982266;28;20049;-83
2022/01/05 02:58:06;;;;;;;0.10;0.10;;;;;;;6.38;100.00;98936.25;4976819;28;20050;-83
2022/01/05 03:01:09;;;;;;;1.40;0.47;;;;;;;6.39;100.00;98946.81;4978980;28;20081;-83
2022/01/05 03:04:13;;;;;;;0.45;0.43;;;;;;;6.38;100.00;98941.78;4984840;28;20061;-83
2022/01/05 03:07:16;;;;;;;1.98;0.52;;;;;;;6.43;100.00;98950.19;4979869;28;20053;-83
2022/01/05 03:10:20;;;;;;;0.65;0.30;;;;;;;6.63;100.00;98953.13;4978245;28;20050;-83
2022/01/05 03:13:23;;;;;;;0.50;0.50;;;;;;;6.75;100.00;98954.16;4987205;28;20050;-83
2022/01/05 03:16:27;;;;;;;0.15;0.15;;;;;;;6.73;100.00;98962.94;4983515;28;20049;-83
2022/01/05 03:19:30;;;;;;;6.15;1.88;;;;;;;6.76;100.00;98984.09;4980176;28;20046;-83
2022/01/05 03:22:34;;;;;;;0.20;0.20;;;;;;;6.80;100.00;98983.91;4975891;28;20053;-84
2022/01/05 03:25:39;;;;;;;0.40;0.40;;;;;;;6.68;100.00;98982.16;4990777;28;20060;-84
2022/01/05 03:28:42;;;;;;;0.10;0.10;;;;;;;6.63;100.00;98975.25;4987587;28;20449;-84
2022/01/05 03:31:46;;;;;;;1.08;0.52;;;;;;;6.67;100.00;98967.56;4999684;28;20066;-84
2022/01/05 03:34:51;;;;;;;0.17;0.17;;;;;;;6.75;100.00;98965.22;4985727;28;20061;-83
2022/01/05 03:37:55;;;;;;;0.43;0.20;;;;;;;6.80;100.00;98984.69;4990784;28;20058;-83
2022/01/05 03:40:58;;;;;;;0.95;0.40;;;;;;;6.84;100.00;98984.53;4993615;28;20057;-83
2022/01/05 03:44:02;;;;;;;0.10;0.10;;;;;;;6.85;100.00;98991.56;4986969;28;20054;-83
2022/01/05 03:47:05;;;;;;;0.10;0.10;;;;;;;6.88;100.00;99001.72;4984804;28;20053;-84
2022/01/05 03:50:09;;;;;;;4.18;0.63;;;;;;;6.86;100.00;98998.66;4981060;28;20074;-84
2022/01/05 03:53:13;;;;;;;0.10;0.10;;;;;;;6.91;100.00;99006.28;4985695;28;20053;-83
2022/01/05 03:56:17;;;;;;;6.50;0.73;;;;;;;6.98;100.00;99017.03;4993471;28;20418;-83
2022/01/05 03:59:21;;;;;;;0.40;0.40;;;;;;;7.00;100.00;99020.06;4976141;28;20057;-85
2022/01/05 04:02:25;;;;;;;1.42;0.22;;;;;;;6.93;100.00;99037.03;4982153;28;20423;-84
2022/01/05 04:05:28;;;;;;;0.20;0.20;;;;;;;6.88;100.00;99048.75;4976868;28;20046;-84
2022/01/05 04:08:33;;;;;;;0.25;0.25;;;;;;;6.79;100.00;99044.06;4982212;28;20058;-84
2022/01/05 04:11:36;;;;;;;0.47;0.47;;;;;;;6.76;100.00;99044.19;4994689;28;20045;-83
2022/01/05 04:14:39;;;;;;;0.10;0.10;;;;;;;6.66;100.00;99035.19;4991526;28;20266;-85
2022/01/05 04:17:43;;;;;;;1.27;0.28;;;;;;;6.57;100.00;99038.00;4979048;28;20049;-91
2022/01/05 04:20:46;;;;;;;0.20;0.17;;;;;;;6.47;100.00;99030.22;4978244;28;20062;-89
2022/01/05 04:23:50;;;;;;;0.10;0.10;;;;;;;6.33;100.00;99041.94;4991398;28;20136;-90
2022/01/05 04:26:54;;;;;;;0.57;0.57;;;;;;;6.26;100.00;99048.56;5002907;28;20058;-90
2022/01/05 04:29:57;;;;;;;0.95;0.95;;;;;;;6.20;100.00;99057.94;4991285;28;20057;-91
2022/01/05 04:33:00;;;;;;;1.10;0.52;;;;;;;6.13;100.00;99052.78;4995646;28;20061;-88
2022/01/05 04:36:04;;;;;;;11.77;0.85;;;;;;;6.06;100.00;99060.13;4994503;28;20076;-83
2022/01/05 04:39:08;;;;;;;5.43;1.42;;;;;;;5.97;100.00;99060.19;4984084;28;20045;-80
2022/01/05 04:42:11;;;;;;;1.10;0.38;;;;;;;5.91;100.00;99067.53;4988188;28;20045;-83
2022/01/05 04:45:14;;;;;;;0.32;0.17;;;;;;;5.85;100.00;99069.41;4982302;28;20062;-83
2022/01/05 04:48:18;;;;;;;0.10;0.10;;;;;;;6.03;100.00;99071.38;4996396;28;20049;-83
2022/01/05 04:51:21;;;;;;;9.60;0.57;;;;;;;6.24;100.00;99073.16;4994589;28;20053;-84
2022/01/05 04:54:24;;;;;;;0.20;0.20;;;;;;;6.37;100.00;99079.25;4993269;28;20058;-84
2022/01/05 04:57:28;;;;;;;0.17;0.17;;;;;;;6.36;100.00;99088.03;4995758;28;20077;-87
2022/01/05 05:00:31;;;;;;;21.45;0.55;;;;;;;6.42;100.00;99086.94;4995516;28;20054;-91
2022/01/05 05:03:34;;;;;;;0.10;0.10;;;;;;;6.66;100.00;99095.28;4992157;28;20405;-91
2022/01/05 05:06:37;;;;;;;25.75;1.95;;;;;;;6.77;100.00;99081.72;4982985;28;20073;-89
2022/01/05 05:09:41;;;;;;;4.20;0.55;;;;;;;6.84;100.00;99084.16;4986783;28;20050;-93
2022/01/05 05:12:44;;;;;;;0.30;0.30;;;;;;;6.91;100.00;99092.09;4991025;28;20054;-82
2022/01/05 05:15:47;;;;;;;1.48;0.45;;;;;;;6.78;100.00;99100.63;4993261;28;20053;-83
2022/01/05 05:18:51;;;;;;;0.13;0.13;;;;;;;6.73;100.00;99097.72;4993617;28;20049;-83
2022/01/05 05:21:54;;;;;;;0.10;0.10;;;;;;;6.55;100.00;99095.03;5004199;28;20057;-84
2022/01/05 05:24:58;;;;;;;0.10;0.10;;;;;;;6.41;100.00;99095.69;4994958;28;20508;-84
2022/01/05 05:28:01;;;;;;;0.85;0.75;;;;;;;6.30;100.00;99098.19;4992970;28;20558;-84
2022/01/05 05:31:04;;;;;;;0.25;0.22;;;;;;;6.20;100.00;99102.19;4973525;28;20054;-93
2022/01/05 05:34:07;;;;;;;2.63;1.40;;;;;;;6.02;100.00;99109.28;4973675;28;20114;-90
2022/01/05 05:37:11;;;;;;;0.20;0.20;;;;;;;6.11;100.00;99100.97;4991579;28;20428;-90
2022/01/05 05:40:14;;;;;;;0.80;0.80;;;;;;;6.18;100.00;99110.19;4994408;28;20053;-89
2022/01/05 05:43:18;;;;;;;0.10;0.10;;;;;;;6.20;100.00;99114.03;4993867;28;20056;-88
2022/01/05 05:46:21;;;;;;;2.97;0.50;;;;;;;6.24;100.00;99108.34;4993693;28;20057;-90
2022/01/05 05:49:24;;;;;;;0.22;0.22;;;;;;;6.34;100.00;99118.13;5005902;28;20058;-90
2022/01/05 05:52:27;;;;;;;0.10;0.10;;;;;;;6.38;100.00;99129.81;4994470;28;20057;-90
2022/01/05 05:55:31;;;;;;;20.10;0.65;;;;;;;6.42;100.00;99135.94;4994985;28;20049;-90
2022/01/05 05:58:35;;;;;;;1.10;0.60;;;;;;;6.44;100.00;99139.00;4995087;28;20574;-91
2022/01/05 06:01:38;;;;;;;13.35;1.17;;;;;;;6.49;100.00;99130.09;4994708;28;20507;-91
2022/01/05 06:04:41;;;;;;;0.28;0.28;;;;;;;6.49;100.00;99136.38;4994162;28;20053;-91
2022/01/05 06:07:45;;;;;;;7.13;0.82;;;;;;;6.49;100.00;99135.63;5005307;28;20606;-87
2022/01/05 06:10:48;;;;;;;0.10;0.10;;;;;;;6.54;100.00;99143.28;4993775;28;20061;-89
2022/01/05 06:13:52;;;;;;;0.10;0.10;;;;;;;6.61;100.00;99149.25;4993800;28;20057;-87
2022/01/05 06:16:55;;;;;;;0.10;0.10;;;;;;;6.71;100.00;99147.97;5000181;28;20057;-87
2022/01/05 06:19:59;;;;;;;0.47;0.30;;;;;;;6.69;100.00;99149.69;5004860;28;20053;-89
2022/01/05 06:23:03;;;;;;;0.15;0.10;;;;;;;6.59;100.00;99151.72;5005131;28;20065;-88
2022/01/05 06:26:06;;;;;;;0.52;0.52;;;;;;;6.71;100.00;99161.06;4994484;28;20057;-89
2022/01/05 06:29:10;;;;;;;0.35;0.35;;;;;;;6.81;100.00;99165.31;4994243;28;20053;-89
2022/01/05 06:32:13;;;;;;;0.85;0.57;;;;;;;6.92;100.00;99168.38;4993536;28;20069;-87
2022/01/05 06:35:19;;;;;;;1.85;0.95;;;;;;;6.83;100.00;99165.63;4993793;28;20057;-91
2022/01/05 06:38:23;;;;;;;0.30;0.30;;;;;;;6.77;100.00;99170.25;5004933;28;20054;-91
2022/01/05 06:41:26;;;;;;;0.50;0.50;;;;;;;6.70;100.00;99167.81;4994148;28;20061;-90
2022/01/05 06:44:29;;;;;;;6.22;1.35;;;;;;;6.56;100.00;99177.53;4992908;28;20053;-87
2022/01/05 06:47:33;;;;;;;8.15;1.23;;;;;;;6.41;100.00;99173.13;4993646;28;20057;-87
2022/01/05 06:50:36;;;;;;;1.75;0.85;;;;;;;6.39;100.00;99186.66;4994707;28;20511;-90
2022/01/05 06:53:40;;;;;;;1.20;0.77;;;;;;;6.30;100.00;99194.97;4994397;28;20076;-92
2022/01/05 06:56:44;;;;;;;7.53;1.55;;;;;;;5.99;100.00;99195.13;4981191;28;20053;-90
2022/01/05 06:59:48;;;;;;;0.45;0.45;;;;;;;5.98;100.00;99202.63;4974900;28;20054;-90
2022/01/05 07:02:52;;;;;;;7.53;1.55;;;;;;;5.90;100.00;99195.88;4974241;28;20056;-90
2022/01/05 07:05:55;;;;;;;9.52;0.98;;;;;;;5.86;100.00;99191.75;4979393;28;20061;-89
2022/01/05 07:08:58;;;;;;;8.23;1.88;;;;;;;5.82;100.00;99200.16;5004485;28;20496;-90
2022/01/05 07:12:02;;;;;;;4.80;0.75;;;;;;;5.85;100.00;99215.81;4993690;28;20069;-90
2022/01/05 07:15:06;;;;;;;0.30;0.30;;;;;;;5.87;100.00;99223.66;4993726;28;20069;-88
2022/01/05 07:18:09;;;;;;;3.97;0.43;;;;;;;5.99;100.00;99233.81;4993608;28;20412;-89
2022/01/05 07:21:13;;;;;;;2.47;1.13;;;;;;;5.97;100.00;99242.56;4993807;28;20054;-89
2022/01/05 07:24:19;;;;;;;0.10;0.10;;;;;;;6.05;100.00;99251.31;4993662;28;20054;-90
2022/01/05 07:27:24;;;;;;;0.45;0.45;;;;;;;6.08;100.00;99256.72;4993650;28;20053;-90
2022/01/05 07:30:27;;;;;;;8.30;0.80;;;;;;;6.13;100.00;99258.84;4992650;28;20065;-89
2022/01/05 07:33:31;;;;;;;1.08;0.75;;;;;;;6.18;100.00;99267.75;4993513;28;20053;-90
2022/01/05 07:36:36;;;;;;;1.00;0.35;;;;;;;6.21;100.00;99269.59;4992641;28;20073;-87
2022/01/05 07:39:39;;;;;;;0.38;0.20;;;;;;;6.31;100.00;99269.16;4993379;28;20049;-89
2022/01/05 07:42:42;;;;;;;0.57;0.20;;;;;;;6.56;100.00;99290.19;4992581;28;20057;-88
2022/01/05 07:45:45;;;;;;;0.10;0.10;;;;;;;6.57;100.00;99291.72;4992524;28;20130;-92
2022/01/05 07:48:49;;;;;;;3.03;0.20;;;;;;;6.53;100.00;99285.59;5004019;28;20499;-90
2022/01/05 07:51:52;;;;;;;2.25;0.82;;;;;;;6.49;100.00;99296.03;4993014;28;20053;-83
2022/01/05 07:54:56;;;;;;;12.07;0.60;;;;;;;6.47;100.00;99310.34;5004781;28;20073;-90
2022/01/05 07:57:59;;;;;;;2.92;0.40;;;;;;;6.49;100.00;99309.88;4992442;28;20057;-89
2022/01/05 08:01:04;;;;;;;0.30;0.30;;;;;;;6.44;100.00;99305.72;4992517;28;20050;-90
2022/01/05 08:04:08;;;;;;;0.20;0.20;;;;;;;6.40;100.00;99307.09;4991887;28;20073;-90
2022/01/05 08:07:11;;;;;;;2.20;0.47;;;;;;;6.36;100.00;99306.47;4990377;28;20503;-85
2022/01/05 08:10:14;;;;;;;0.10;0.10;;;;;;;6.27;100.00;99312.78;4991631;28;20058;-83
2022/01/05 08:13:18;;;;;;;0.10;0.10;;;;;;;6.20;100.00;99318.59;4993084;28;20408;-85
2022/01/05 08:16:21;;;;;;;0.43;0.40;;;;;;;6.20;100.00;99315.06;4995126;28;20058;-83
2022/01/05 08:19:24;;;;;;;2.05;0.45;;;;;;;6.15;100.00;99321.22;4994353;28;20049;-88
2022/01/05 08:22:27;;;;;;;1.20;0.45;;;;;;;6.06;100.00;99319.19;4994068;28;20119;-83
2022/01/05 08:25:31;;;;;;;2.17;0.43;;;;;;;6.13;100.00;99323.66;4995185;28;20049;-89
2022/01/05 08:28:35;;;;;;;0.15;0.15;;;;;;;6.09;100.00;99323.78;4996402;28;20049;-92
2022/01/05 08:31:39;;;;;;;0.50;0.45;;;;;;;6.02;100.00;99333.16;4995912;28;20061;-90
2022/01/05 08:34:42;;;;;;;0.25;0.25;;;;;;;5.88;100.00;99336.50;5002854;28;20053;-89
2022/01/05 08:37:47;;;;;;;0.22;0.22;;;;;;;5.82;100.00;99346.59;4976368;28;20062;-84
2022/01/05 08:40:51;;;;;;;0.10;0.10;;;;;;;5.82;100.00;99348.56;4996652;28;20061;-91
2022/01/05 08:43:54;;;;;;;0.45;0.45;;;;;;;5.79;100.00;99361.31;5013972;28;20048;-91
2022/01/05 08:46:58;;;;;;;0.20;0.20;;;;;;;5.81;100.00;99372.66;5000095;28;20507;-92
2022/01/05 08:50:03;;;;;;;1.98;0.40;;;;;;;5.84;100.00;99373.78;4995601;28;20261;-93
2022/01/05 08:53:08;;;;;;;0.30;0.30;;;;;;;5.84;100.00;99371.03;4995865;28;20066;-94
2022/01/05 08:56:11;;;;;;;23.35;2.60;;;;;;;5.87;100.00;99378.38;4987356;28;20057;-89
2022/01/05 08:59:15;;;;;;;0.10;0.10;;;;;;;5.85;100.00;99381.63;4976374;28;20054;-89
2022/01/05 09:02:19;;;;;;;0.30;0.30;;;;;;;5.96;100.00;99381.19;4976333;28;20058;-90
2022/01/05 09:05:23;;;;;;;0.45;0.20;;;;;;;6.08;100.00;99400.44;4978118;28;20062;-91
2022/01/05 09:08:26;;;;;;;6.40;0.50;;;;;;;6.10;100.00;99403.53;4995449;28;20053;-88
2022/01/05 09:11:30;;;;;;;0.60;0.50;;;;;;;6.29;100.00;99420.13;4995113;28;20432;-88
2022/01/05 09:14:33;;;;;;;18.83;0.63;;;;;;;6.30;100.00;99416.94;4994732;28;20069;-83
2022/01/05 09:17:38;;;;;;;2.40;1.75;;;;;;;6.43;100.00;99422.34;4977784;28;20061;-82
2022/01/05 09:20:42;;;;;;;1.50;0.28;;;;;;;6.40;100.00;99421.25;4981144;28;20053;-88
2022/01/05 09:23:45;;;;;;;0.70;0.60;;;;;;;6.35;100.00;99432.13;4979503;28;20050;-88
2022/01/05 09:26:49;;;;;;;0.47;0.38;;;;;;;6.37;100.00;99437.97;4980190;28;20049;-92
2022/01/05 09:29:52;;;;;;;4.65;1.10;;;;;;;6.42;100.00;99445.69;4979665;28;20267;-92
2022/01/05 09:32:58;;;;;;;0.50;0.20;;;;;;;6.47;100.00;99450.63;4979772;28;20050;-94
2022/01/05 09:36:09;;;;;;;0.52;0.50;;;;;;;6.46;100.00;99449.84;4980025;28;20053;-86
2022/01/05 09:42:37;;;;;;;0.50;0.50;;;;;;;6.39;100.00;99465.97;4982616;28;20069;-88
2022/01/05 09:45:53;;;;;;;0.32;0.32;;;;;;;6.38;100.00;99472.72;4992443;28;20058;-87
2022/01/05 09:49:11;;;;;;;0.20;0.20;;;;;;;6.32;100.00;99480.06;4993020;28;20050;-86
2022/01/05 09:52:15;;;;;;;1.00;0.52;;;;;;;6.25;100.00;99481.13;4993155;28;20045;-86
2022/01/05 09:55:19;;;;;;;1.05;0.20;;;;;;;6.23;100.00;99493.84;4993216;28;20519;-87
2022/01/05 09:58:23;;;;;;;0.22;0.20;;;;;;;6.20;100.00;99492.78;4991912;28;20053;-87
2022/01/05 10:01:32;;;;;;;4.38;1.48;;;;;;;6.23;100.00;99499.38;4993461;28;20072;-87
2022/01/05 10:04:39;;;;;;;27.88;1.17;;;;;;;6.29;100.00;99508.63;5011872;28;20053;-87
2022/01/05 10:07:43;;;;;;;0.10;0.10;;;;;;;6.32;100.00;99516.03;4973269;28;20066;-89
2022/01/05 10:10:47;;;;;;;0.65;0.45;;;;;;;6.31;100.00;99528.28;4983239;28;20065;-85
2022/01/05 10:13:50;;;;;;;0.45;0.45;;;;;;;6.32;100.00;99538.16;4992299;28;20058;-88
2022/01/05 10:17:09;;;;;;;0.38;0.38;;;;;;;6.31;100.00;99539.34;4991812;28;20508;-87
2022/01/05 10:20:12;;;;;;;1.20;0.55;;;;;;;6.23;100.00;99543.63;4992581;28;20049;-87
2022/01/05 10:23:33;;;;;;;0.20;0.20;;;;;;;6.26;100.00;99549.00;4992743;28;20058;-88
2022/01/05 10:26:39;;;;;;;0.35;0.35;;;;;;;6.34;100.00;99550.31;4992203;28;20555;-88
2022/01/05 10:29:59;;;;;;;3.50;0.80;;;;;;;6.35;100.00;99557.34;4992730;28;20448;-87
2022/01/05 10:33:04;;;;;;;1.23;0.85;;;;;;;6.32;100.00;99563.03;4992661;28;20057;-87
2022/01/05 10:36:08;;;;;;;0.38;0.38;;;;;;;6.28;100.00;99562.41;4990755;28;20053;-86
2022/01/05 10:39:12;;;;;;;0.30;0.30;;;;;;;6.26;100.00;99565.59;4992033;28;20061;-85
2022/01/05 10:42:15;;;;;;;5.38;0.60;;;;;;;6.31;100.00;99564.25;4971613;28;20409;-86
2022/01/05 10:45:24;;;;;;;0.28;0.28;;;;;;;6.38;100.00;99583.34;4974168;28;20054;-86
2022/01/05 10:48:28;;;;;;;0.43;0.43;;;;;;;6.40;100.00;99575.34;4991045;28;20062;-85
2022/01/05 10:51:33;;;;;;;0.98;0.50;;;;;;;6.49;100.00;99580.94;4990775;28;20516;-89
2022/01/05 10:54:37;;;;;;;0.20;0.20;;;;;;;6.55;100.00;99581.88;4991766;28;20061;-88
2022/01/05 10:58:09;;;;;;;0.15;0.15;;;;;;;6.57;100.00;99596.81;4972486;28;20461;-89
2022/01/05 11:01:27;;;;;;;2.83;1.05;;;;;;;6.53;100.00;99600.94;4971971;28;20061;-87
2022/01/05 11:04:31;;;;;;;0.10;0.10;;;;;;;6.56;100.00;99603.53;4972784;28;20053;-88
2022/01/05 11:07:39;;;;;;;0.10;0.10;;;;;;;6.65;100.00;99602.81;4972416;28;20277;-88
2022/01/05 11:10:43;;;;;;;1.02;0.50;;;;;;;6.68;100.00;99610.22;4993159;28;20053;-90
2022/01/05 11:13:53;;;;;;;0.55;0.47;;;;;;;6.75;100.00;99623.78;4991643;28;20057;-87
2022/01/05 11:16:59;;;;;;;2.78;0.43;;;;;;;6.98;100.00;99637.06;4982827;28;20045;-89
2022/01/05 11:20:10;;;;;;;0.20;0.10;;;;;;;7.26;100.00;99651.78;4972495;28;20053;-88
2022/01/05 11:23:15;;;;;;;0.20;0.20;;;;;;;7.49;100.00;99649.19;4982771;28;20057;-88
2022/01/05 11:26:19;;;;;;;0.10;0.10;;;;;;;7.47;100.00;99651.66;4991191;28;20057;-88
2022/01/05 11:29:23;;;;;;;0.10;0.10;;;;;;;7.50;100.00;99650.75;4991118;28;20057;-87
2022/01/05 11:32:31;;;;;;;0.20;0.20;;;;;;;7.45;100.00;99651.34;4990551;28;20130;-87
2022/01/05 11:35:35;;;;;;;0.50;0.30;;;;;;;7.40;100.00;99646.44;5001896;28;20396;-86
2022/01/05 11:38:39;;;;;;;0.52;0.22;;;;;;;7.40;100.00;99643.66;4992100;28;20057;-91
2022/01/05 11:41:46;;;;;;;1.55;0.65;;;;;;;7.39;100.00;99650.41;5019686;28;20057;-90
2022/01/05 11:44:52;;;;;;;5.82;1.05;;;;;;;7.37;100.00;99650.13;5011356;28;20053;-88
2022/01/05 11:48:11;;;;;;;0.30;0.30;;;;;;;7.40;100.00;99651.97;4976311;28;20127;-93
2022/01/05 11:51:14;;;;;;;0.17;0.17;;;;;;;7.50;100.00;99661.84;4980022;28;20409;-89
2022/01/05 11:54:26;;;;;;;0.32;0.20;;;;;;;7.61;100.00;99659.41;4986156;28;20058;-89
2022/01/05 11:57:30;;;;;;;0.85;0.57;;;;;;;7.73;100.00;99668.03;5021033;28;20126;-95
2022/01/05 12:00:33;;;;;;;0.22;0.22;;;;;;;7.87;100.00;99668.19;5016144;28;20096;-90
2022/01/05 12:03:52;;;;;;;2.30;0.47;;;;;;;7.81;100.00;99669.25;5015004;28;20053;-90
2022/01/05 12:07:01;;;;;;;0.20;0.20;;;;;;;7.76;100.00;99667.09;4999898;28;20459;-90
2022/01/05 12:10:21;;;;;;;0.40;0.40;;;;;;;7.78;100.00;99667.41;4983301;28;20507;-94
2022/01/05 12:13:36;;;;;;;0.98;0.80;;;;;;;7.84;100.00;99673.91;4980287;28;20058;-95
2022/01/05 12:17:03;;;;;;;0.20;0.20;;;;;;;7.92;100.00;99664.03;4990402;28;20436;-91
2022/01/05 12:20:09;;;;;;;0.10;0.10;;;;;;;7.87;100.00;99667.41;4996945;28;20053;-92
2022/01/05 12:23:25;;;;;;;10.70;0.52;;;;;;;7.77;100.00;99679.72;4994178;28;20057;-93
2022/01/05 12:26:28;;;;;;;1.20;1.08;;;;;;;7.77;100.00;99685.28;4994560;28;20069;-87
2022/01/05 12:29:31;;;;;;;0.20;0.20;;;;;;;7.69;100.00;99684.03;4994687;28;20053;-83
2022/01/05 12:32:44;;;;;;;0.10;0.10;;;;;;;7.56;100.00;99687.69;4998067;28;20425;-86
2022/01/05 12:35:56;;;;;;;0.10;0.10;;;;;;;7.57;100.00;99689.25;4993639;28;20045;-85
2022/01/05 12:39:03;;;;;;;0.10;0.10;;;;;;;7.67;100.00;99687.25;4994575;28;20053;-90
2022/01/05 12:42:22;;;;;;;0.15;0.15;;;;;;;7.74;100.00;99694.50;4995060;28;20064;-89
2022/01/05 12:45:55;;;;;;;0.17;0.17;;;;;;;7.78;100.00;99698.66;4993494;28;20053;-87
2022/01/05 12:49:02;;;;;;;0.20;0.20;;;;;;;7.74;100.00;99694.50;4994732;28;20316;-87
2022/01/05 12:52:14;;;;;;;1.10;0.20;;;;;;;7.76;100.00;99695.59;4983541;28;20046;-91
2022/01/05 12:55:18;;;;;;;0.47;0.35;;;;;;;7.73;100.00;99692.97;4995001;28;20049;-90
2022/01/05 12:58:22;;;;;;;1.17;0.68;;;;;;;7.72;100.00;99688.66;4993044;28;20053;-90
2022/01/05 13:01:26;;;;;;;0.10;0.10;;;;;;;7.64;100.00;99688.94;4994010;28;20077;-88
2022/01/05 13:04:31;;;;;;;4.78;0.38;;;;;;;7.57;100.00;99689.25;4993738;28;20515;-88
2022/01/05 13:07:39;;;;;;;3.50;0.30;;;;;;;7.53;100.00;99705.25;4993689;28;20507;-89
2022/01/05 13:10:42;;;;;;;0.75;0.13;;;;;;;7.50;100.00;99700.63;4994039;28;20504;-88
2022/01/05 13:13:45;;;;;;;4.95;0.65;;;;;;;7.48;100.00;99703.09;4993823;28;20053;-90
2022/01/05 13:17:20;;;;;;;2.28;0.45;;;;;;;7.56;100.00;99709.09;4993132;28;20053;-93
2022/01/05 13:20:23;;;;;;;5.45;0.30;;;;;;;7.57;100.00;99722.50;4987992;28;20101;-90
2022/01/05 13:23:26;;;;;;;2.38;1.10;;;;;;;7.54;100.00;99723.41;5023750;28;20073;-88
2022/01/05 13:26:30;;;;;;;0.20;0.20;;;;;;;7.59;100.00;99731.13;5013438;28;20057;-89
2022/01/05 13:29:35;;;;;;;0.20;0.20;;;;;;;7.54;100.00;99740.03;5013881;28;20443;-88
2022/01/05 13:32:40;;;;;;;0.10;0.10;;;;;;;7.47;100.00;99745.88;4988427;28;20057;-88
2022/01/05 13:35:44;;;;;;;11.05;1.17;;;;;;;7.34;100.00;99750.75;4974128;28;20053;-91
2022/01/05 13:38:50;;;;;;;8.20;1.35;;;;;;;7.20;100.00;99743.00;4974722;28;20504;-89
2022/01/05 13:41:55;;;;;;;0.30;0.20;;;;;;;7.09;100.00;99747.41;4992608;28;20049;-89
2022/01/05 13:44:59;;;;;;;17.42;1.00;;;;;;;7.06;100.00;99746.31;4994027;28;20057;-91
2022/01/05 13:48:08;;;;;;;1.02;0.52;;;;;;;7.10;100.00;99754.50;4993579;28;20057;-86
2022/01/05 13:51:12;;;;;;;0.20;0.20;;;;;;;7.03;100.00;99754.75;4993375;28;20515;-86
2022/01/05 13:54:15;;;;;;;0.90;0.40;;;;;;;7.05;100.00;99764.16;5003540;28;20057;-89
2022/01/05 13:57:35;;;;;;;0.10;0.10;;;;;;;7.00;100.00;99761.19;5003956;28;20061;-89
2022/01/05 14:00:41;;;;;;;1.00;0.70;;;;;;;6.91;100.00;99764.69;4992772;28;20070;-87
2022/01/05 14:03:51;;;;;;;0.10;0.08;;;;;;;6.87;100.00;99769.59;4984507;28;20054;-88
2022/01/05 14:06:59;;;;;;;1.20;0.25;;;;;;;6.75;100.00;99773.22;4984207;28;20062;-88
2022/01/05 14:10:15;;;;;;;1.27;0.45;;;;;;;6.68;100.00;99767.94;4972612;28;20070;-89
2022/01/05 14:13:24;;;;;;;11.48;0.57;;;;;;;6.60;100.00;99786.03;4992246;28;20507;-89
2022/01/05 14:16:30;;;;;;;0.10;0.10;;;;;;;6.62;100.00;99789.88;4992767;28;20400;-88
2022/01/05 14:19:34;;;;;;;3.10;0.55;;;;;;;6.55;100.00;99776.31;4992656;28;20126;-87
2022/01/05 14:22:37;;;;;;;2.30;0.43;;;;;;;6.55;100.00;99783.81;4984446;28;20081;-82
2022/01/05 14:25:57;;;;;;;0.22;0.22;;;;;;;6.48;100.00;99782.09;4981910;28;20053;-84
2022/01/05 14:29:01;;;;;;;0.38;0.38;;;;;;;6.41;100.00;99784.34;4991755;28;20061;-90
2022/01/05 14:32:06;;;;;;;0.47;0.35;;;;;;;6.33;100.00;99791.31;5003826;28;20057;-83
2022/01/05 14:35:15;;;;;;;0.10;0.10;;;;;;;6.21;100.00;99789.38;4992018;28;20057;-88
2022/01/05 14:38:18;;;;;;;0.10;0.10;;;;;;;6.17;100.00;99786.75;4991582;28;20053;-85